Time;durP1;ratioP1;P1;durP2;ratioP2;P2;SDS_P1;SDS_P2;PMS_P1;PMS_P2;Temp;Humidity;BMP_temperature;BMP_pressure;BME280_temperature;BME280_humidity;BME280_pressure;Samples;Min_cycle;Max_cycle;Signal;HPM_P1;HPM_P2
2023/12/20 00:01:23;;;;;;;1041.55;933.28;;;6.50;99.90;;;;;;5058517;28;20520;-82
2023/12/20 00:03:49;;;;;;;990.60;894.70;;;5.70;99.90;;;;;;5058045;28;20058;-83
2023/12/20 00:06:15;;;;;;;986.22;893.35;;;5.70;99.90;;;;;;5058368;28;20505;-82
2023/12/20 00:08:42;;;;;;;997.20;899.60;;;5.60;99.90;;;;;;5057856;28;20533;-82
2023/12/20 00:11:08;;;;;;;946.08;863.35;;;5.60;99.90;;;;;;5065393;28;20595;-82
2023/12/20 00:13:33;;;;;;;982.38;889.92;;;4.70;99.90;;;;;;5075387;28;20036;-82
2023/12/20 00:15:59;;;;;;;952.05;867.60;;;5.50;99.90;;;;;;5075245;28;20127;-82
2023/12/20 00:18:24;;;;;;;996.45;897.45;;;6.10;99.90;;;;;;5060089;28;20043;-82
2023/12/20 00:20:50;;;;;;;953.47;866.35;;;5.40;99.90;;;;;;5060133;28;20069;-82
2023/12/20 00:23:16;;;;;;;1002.42;903.30;;;5.80;99.90;;;;;;5060552;28;20048;-82
2023/12/20 00:25:42;;;;;;;961.63;875.58;;;5.30;99.90;;;;;;5059544;28;20073;-82
2023/12/20 00:28:07;;;;;;;975.00;887.17;;;5.30;99.90;;;;;;5074845;28;20126;-82
2023/12/20 00:30:33;;;;;;;960.60;873.08;;;5.60;99.90;;;;;;5083724;28;20652;-83
2023/12/20 00:32:59;;;;;;;977.60;886.75;;;5.60;99.90;;;;;;5060487;28;20523;-82
2023/12/20 00:35:24;;;;;;;960.63;873.85;;;5.40;99.90;;;;;;5059842;28;20039;-82
2023/12/20 00:37:50;;;;;;;948.63;862.63;;;5.40;99.90;;;;;;5060096;28;20570;-82
2023/12/20 00:40:16;;;;;;;946.47;865.17;;;6.00;99.90;;;;;;5059770;28;20086;-82
2023/12/20 00:42:42;;;;;;;991.88;894.33;;;5.30;99.90;;;;;;5077035;28;20115;-82
2023/12/20 00:45:08;;;;;;;970.40;874.97;;;5.40;99.90;;;;;;5076224;28;20493;-82
2023/12/20 00:47:33;;;;;;;952.67;867.30;;;5.40;99.90;;;;;;5056198;28;20029;-82
2023/12/20 00:49:59;;;;;;;999.80;896.75;;;6.50;99.90;;;;;;5057769;28;20052;-82
2023/12/20 00:52:25;;;;;;;987.63;891.40;;;5.50;99.90;;;;;;5074428;28;20043;-83
2023/12/20 00:54:51;;;;;;;949.63;863.03;;;5.40;99.90;;;;;;5057046;28;20418;-82
2023/12/20 00:57:16;;;;;;;954.70;869.08;;;5.40;99.90;;;;;;5073764;28;20141;-82
2023/12/20 00:59:42;;;;;;;954.13;863.65;;;5.40;99.90;;;;;;5057028;28;20064;-82
2023/12/20 01:02:08;;;;;;;924.15;844.00;;;6.50;99.90;;;;;;5056668;28;20108;-82
2023/12/20 01:04:34;;;;;;;944.03;859.72;;;6.70;99.90;;;;;;5056728;28;20066;-82
2023/12/20 01:07:00;;;;;;;931.90;851.88;;;5.40;99.90;;;;;;5077592;28;20038;-83
2023/12/20 01:09:28;;;;;;;917.25;836.65;;;5.40;99.90;;;;;;5062300;28;20484;-81
2023/12/20 01:11:54;;;;;;;936.28;855.05;;;5.40;99.90;;;;;;5067154;28;20052;-82
2023/12/20 01:14:20;;;;;;;967.03;878.28;;;5.40;99.90;;;;;;5078038;28;20032;-82
2023/12/20 01:16:45;;;;;;;948.13;860.58;;;6.00;99.90;;;;;;5062676;28;20068;-83
2023/12/20 01:19:13;;;;;;;949.03;862.40;;;6.80;99.90;;;;;;5079684;28;20570;-82
2023/12/20 01:21:39;;;;;;;934.55;853.17;;;6.20;99.90;;;;;;5073053;28;20044;-82
2023/12/20 01:24:04;;;;;;;966.47;875.13;;;6.10;99.90;;;;;;5066732;28;20096;-82
2023/12/20 01:26:30;;;;;;;940.13;857.55;;;5.50;99.90;;;;;;5073352;28;20051;-82
2023/12/20 01:28:56;;;;;;;1022.47;915.63;;;6.30;99.90;;;;;;5063747;28;20047;-82
2023/12/20 01:31:21;;;;;;;934.15;850.42;;;5.60;99.90;;;;;;5061278;28;20037;-82
2023/12/20 01:33:47;;;;;;;948.72;862.83;;;5.80;99.90;;;;;;5060611;28;20036;-82
2023/12/20 01:36:12;;;;;;;939.85;855.10;;;5.60;99.90;;;;;;5076717;28;20428;-82
2023/12/20 01:38:39;;;;;;;980.33;883.20;;;5.60;99.90;;;;;;5076591;28;20481;-82
2023/12/20 01:41:04;;;;;;;959.70;869.22;;;5.60;99.90;;;;;;5059916;28;20067;-82
2023/12/20 01:43:30;;;;;;;946.67;859.00;;;5.50;99.90;;;;;;5058854;28;20393;-82
2023/12/20 01:46:00;;;;;;;996.65;895.78;;;6.70;99.90;;;;;;5060100;28;20040;-82
2023/12/20 01:48:27;;;;;;;940.28;857.60;;;5.50;99.90;;;;;;5060058;28;20052;-82
2023/12/20 01:50:54;;;;;;;989.90;891.85;;;5.50;99.90;;;;;;5059716;28;20048;-82
2023/12/20 01:53:21;;;;;;;989.95;892.85;;;6.20;99.90;;;;;;5076221;28;20033;-82
2023/12/20 01:55:50;;;;;;;973.63;883.85;;;6.30;99.90;;;;;;5075802;28;20033;-82
2023/12/20 01:58:16;;;;;;;1014.72;909.00;;;5.60;99.90;;;;;;5059874;28;20028;-82
2023/12/20 02:00:42;;;;;;;958.00;870.72;;;6.20;99.90;;;;;;5075969;28;20071;-82
2023/12/20 02:03:08;;;;;;;1005.22;906.58;;;5.70;99.90;;;;;;5059498;28;20493;-82
2023/12/20 02:05:36;;;;;;;987.05;889.63;;;5.70;99.90;;;;;;5059006;28;20024;-82
2023/12/20 02:08:01;;;;;;;954.15;872.03;;;5.70;99.90;;;;;;5059440;28;20543;-82
2023/12/20 02:10:27;;;;;;;1005.20;905.00;;;5.70;99.90;;;;;;5072095;28;20037;-82
2023/12/20 02:12:53;;;;;;;947.65;864.22;;;5.70;99.90;;;;;;5058615;28;20096;-82
2023/12/20 02:15:19;;;;;;;956.65;870.50;;;6.10;99.90;;;;;;5060010;28;20855;-82
2023/12/20 02:17:46;;;;;;;992.03;895.50;;;6.60;99.90;;;;;;5060071;28;20044;-82
2023/12/20 02:20:12;;;;;;;957.15;873.50;;;6.70;99.90;;;;;;5079157;28;20044;-83
2023/12/20 02:22:38;;;;;;;975.40;885.50;;;5.70;99.90;;;;;;5062137;28;20036;-82
2023/12/20 02:25:04;;;;;;;1038.45;930.42;;;5.60;99.90;;;;;;5075526;28;20041;-82
2023/12/20 02:27:30;;;;;;;958.13;871.30;;;5.70;99.90;;;;;;5068351;28;20043;-83
2023/12/20 02:29:56;;;;;;;971.33;878.08;;;6.60;99.90;;;;;;5063469;28;20059;-82
2023/12/20 02:32:25;;;;;;;936.70;854.90;;;6.40;99.90;;;;;;5062467;28;20044;-83
2023/12/20 02:34:51;;;;;;;986.83;893.40;;;5.60;99.90;;;;;;5078526;28;20028;-82
2023/12/20 02:37:17;;;;;;;979.60;886.30;;;5.60;99.90;;;;;;5061905;28;20170;-82
2023/12/20 02:39:44;;;;;;;957.25;873.78;;;6.20;99.90;;;;;;5062046;28;20056;-82
2023/12/20 02:42:10;;;;;;;969.67;877.83;;;7.00;99.90;;;;;;5061117;28;20556;-82
2023/12/20 02:44:36;;;;;;;948.67;862.83;;;5.60;99.90;;;;;;5074875;28;20072;-82
2023/12/20 02:47:05;;;;;;;954.70;868.17;;;5.60;99.90;;;;;;5059464;28;20036;-82
2023/12/20 02:49:30;;;;;;;939.53;856.72;;;5.60;99.90;;;;;;5074340;28;20032;-82
2023/12/20 02:51:56;;;;;;;966.75;875.47;;;5.50;99.90;;;;;;5059447;28;20036;-82
2023/12/20 02:54:22;;;;;;;945.60;860.47;;;5.50;99.90;;;;;;5059186;28;20041;-82
2023/12/20 02:56:48;;;;;;;943.88;857.95;;;5.50;99.90;;;;;;5059316;28;20035;-82
2023/12/20 02:59:13;;;;;;;985.72;889.75;;;5.40;99.90;;;;;;5058641;28;20051;-82
2023/12/20 03:01:44;;;;;;;969.05;878.50;;;5.40;99.90;;;;;;5058479;28;20029;-82
2023/12/20 03:04:10;;;;;;;921.63;841.15;;;5.40;99.90;;;;;;5058174;28;20032;-82
2023/12/20 03:06:35;;;;;;;973.90;880.72;;;5.40;99.90;;;;;;5058361;28;20036;-82
2023/12/20 03:09:01;;;;;;;923.42;841.60;;;5.40;99.90;;;;;;5061639;28;20043;-82
2023/12/20 03:11:28;;;;;;;956.42;865.92;;;6.10;99.90;;;;;;5077725;28;20036;-82
2023/12/20 03:13:53;;;;;;;944.72;855.95;;;6.40;99.90;;;;;;5062163;28;20093;-82
2023/12/20 03:16:19;;;;;;;938.70;855.28;;;5.70;99.90;;;;;;5061594;28;20037;-82
2023/12/20 03:18:45;;;;;;;941.30;856.10;;;5.60;99.90;;;;;;5063196;28;20034;-82
2023/12/20 03:21:10;;;;;;;974.42;880.45;;;5.60;99.90;;;;;;5060204;28;20536;-82
2023/12/20 03:23:36;;;;;;;947.10;860.05;;;6.50;99.90;;;;;;5065776;28;20037;-82
2023/12/20 03:26:02;;;;;;;939.00;854.00;;;5.60;99.90;;;;;;5083125;28;20135;-81
2023/12/20 03:28:28;;;;;;;964.72;874.70;;;5.60;99.90;;;;;;5063209;28;20036;-81
2023/12/20 03:30:54;;;;;;;915.42;836.00;;;6.80;99.90;;;;;;5085361;28;20032;-81
2023/12/20 03:33:20;;;;;;;950.70;864.47;;;6.80;99.90;;;;;;5075555;28;20036;-81
2023/12/20 03:35:45;;;;;;;921.97;843.42;;;6.20;99.90;;;;;;5075702;28;20040;-81
2023/12/20 03:38:11;;;;;;;966.30;879.08;;;6.90;99.90;;;;;;5066549;28;20501;-81
2023/12/20 03:40:37;;;;;;;953.03;868.13;;;5.70;99.90;;;;;;5067397;28;20044;-81
2023/12/20 03:43:03;;;;;;;950.78;865.90;;;6.20;99.90;;;;;;5074777;28;20040;-81
2023/12/20 03:45:28;;;;;;;980.28;884.60;;;5.80;99.90;;;;;;5065482;28;20082;-81
2023/12/20 03:47:56;;;;;;;973.10;882.65;;;6.10;99.90;;;;;;5058665;28;20085;-81
2023/12/20 03:50:25;;;;;;;969.67;878.65;;;5.80;99.90;;;;;;5073137;28;20109;-81
2023/12/20 03:52:51;;;;;;;921.58;841.35;;;5.80;99.90;;;;;;5084892;28;20108;-81
2023/12/20 03:55:17;;;;;;;989.05;891.85;;;5.80;99.90;;;;;;5066278;28;20056;-81
2023/12/20 03:57:43;;;;;;;949.25;862.42;;;5.70;99.90;;;;;;5056985;28;20052;-81
2023/12/20 04:00:11;;;;;;;961.15;871.38;;;5.70;99.90;;;;;;5057620;28;20044;-81
2023/12/20 04:02:41;;;;;;;949.72;865.75;;;5.70;99.90;;;;;;5074845;28;20036;-80
2023/12/20 04:05:08;;;;;;;951.38;866.28;;;5.70;99.90;;;;;;5058246;28;20078;-81
2023/12/20 04:07:34;;;;;;;975.35;884.08;;;5.80;99.90;;;;;;5067307;28;20066;-81
2023/12/20 04:10:00;;;;;;;926.55;848.97;;;6.10;99.90;;;;;;5066999;28;20064;-81
2023/12/20 04:12:28;;;;;;;956.65;870.33;;;6.50;99.90;;;;;;5059698;28;20033;-81
2023/12/20 04:14:53;;;;;;;928.63;846.15;;;5.90;99.90;;;;;;5076577;28;20067;-81
2023/12/20 04:17:22;;;;;;;955.25;865.40;;;6.90;99.90;;;;;;5060626;28;20109;-81
2023/12/20 04:19:52;;;;;;;925.70;844.33;;;6.10;99.90;;;;;;5060173;28;20127;-81
2023/12/20 04:22:20;;;;;;;928.05;846.15;;;5.90;99.90;;;;;;5060637;28;20032;-81
2023/12/20 04:24:47;;;;;;;965.67;875.13;;;6.40;99.90;;;;;;5059564;28;20044;-81
2023/12/20 04:27:12;;;;;;;929.17;848.90;;;6.00;99.90;;;;;;5057450;28;20052;-81
2023/12/20 04:29:38;;;;;;;894.15;820.83;;;6.00;99.90;;;;;;5057132;28;20024;-81
2023/12/20 04:32:05;;;;;;;940.90;852.40;;;6.00;99.90;;;;;;5058072;28;20175;-81
2023/12/20 04:34:30;;;;;;;976.72;879.08;;;6.00;99.90;;;;;;5072895;28;20036;-81
2023/12/20 04:36:56;;;;;;;883.05;811.42;;;6.70;99.90;;;;;;5056840;28;20045;-81
2023/12/20 04:39:21;;;;;;;942.40;857.00;;;6.70;99.90;;;;;;5057398;28;20044;-81
2023/12/20 04:41:47;;;;;;;896.63;820.17;;;6.70;99.90;;;;;;5065009;28;20075;-81
2023/12/20 04:44:13;;;;;;;857.00;784.80;;;6.10;99.90;;;;;;5072851;28;20040;-80
2023/12/20 04:46:39;;;;;;;870.78;799.35;;;6.00;99.90;;;;;;5056517;28;20723;-81
2023/12/20 04:49:05;;;;;;;908.80;827.55;;;6.10;99.90;;;;;;5065542;28;20421;-81
2023/12/20 04:51:33;;;;;;;873.50;801.03;;;6.00;99.90;;;;;;5057299;28;20161;-81
2023/12/20 04:53:59;;;;;;;876.92;804.83;;;6.00;99.90;;;;;;5056756;28;20043;-81
2023/12/20 04:56:24;;;;;;;907.53;824.75;;;6.00;99.90;;;;;;5058013;28;20040;-81
2023/12/20 04:58:51;;;;;;;1031.18;920.30;;;6.00;99.90;;;;;;5058025;28;20044;-81
2023/12/20 05:01:16;;;;;;;893.97;818.08;;;6.20;99.90;;;;;;5065952;28;20514;-81
2023/12/20 05:03:42;;;;;;;906.35;830.10;;;6.00;99.90;;;;;;5061064;28;20028;-81
2023/12/20 05:06:08;;;;;;;864.00;791.15;;;6.20;99.90;;;;;;5060510;28;20044;-81
2023/12/20 05:08:33;;;;;;;885.53;808.67;;;6.10;99.90;;;;;;5060756;28;20090;-81
2023/12/20 05:10:59;;;;;;;946.30;858.72;;;6.20;99.90;;;;;;5077912;28;20054;-81
2023/12/20 05:13:25;;;;;;;943.80;857.30;;;6.20;99.90;;;;;;5076825;28;20040;-81
2023/12/20 05:15:50;;;;;;;939.25;851.40;;;6.20;99.90;;;;;;5061160;28;20086;-81
2023/12/20 05:18:16;;;;;;;994.83;890.45;;;6.30;99.90;;;;;;5062090;28;20033;-81
2023/12/20 05:20:42;;;;;;;977.15;878.03;;;6.30;99.90;;;;;;5078208;28;20130;-81
2023/12/20 05:23:07;;;;;;;907.78;824.03;;;6.30;99.90;;;;;;5078230;28;20040;-79
2023/12/20 05:25:33;;;;;;;880.78;803.47;;;6.30;99.90;;;;;;5067440;28;20049;-81
2023/12/20 05:27:59;;;;;;;866.78;787.78;;;6.30;99.90;;;;;;5068083;28;20066;-81
2023/12/20 05:30:24;;;;;;;838.05;767.60;;;6.50;99.90;;;;;;5085156;28;20092;-81
2023/12/20 05:32:51;;;;;;;904.97;820.88;;;6.80;99.90;;;;;;5073379;28;20036;-81
2023/12/20 05:35:17;;;;;;;876.05;797.50;;;6.60;99.90;;;;;;5066056;28;20043;-81
2023/12/20 05:37:42;;;;;;;852.63;775.53;;;6.50;99.90;;;;;;5076865;28;20128;-81
2023/12/20 05:40:12;;;;;;;844.38;771.50;;;7.30;99.90;;;;;;5060434;28;20075;-81
2023/12/20 05:42:37;;;;;;;901.05;816.47;;;6.50;99.90;;;;;;5059799;28;20040;-81
2023/12/20 05:45:04;;;;;;;953.95;858.03;;;7.10;99.90;;;;;;5077020;28;20039;-81
2023/12/20 05:47:29;;;;;;;838.75;770.45;;;6.50;99.90;;;;;;5060100;28;20178;-81
2023/12/20 05:49:55;;;;;;;897.90;818.20;;;6.50;99.90;;;;;;5060143;28;20079;-81
2023/12/20 05:52:21;;;;;;;888.53;809.72;;;7.50;99.90;;;;;;5060881;28;20036;-81
2023/12/20 05:54:47;;;;;;;858.88;786.28;;;6.60;99.90;;;;;;5064264;28;20036;-80
2023/12/20 05:57:14;;;;;;;894.22;810.65;;;7.60;99.90;;;;;;5063696;28;20043;-81
2023/12/20 05:59:40;;;;;;;935.20;844.97;;;7.00;99.90;;;;;;5062491;28;20043;-81
2023/12/20 06:02:05;;;;;;;817.00;747.08;;;6.60;99.90;;;;;;5079415;28;20033;-81
2023/12/20 06:04:32;;;;;;;894.47;813.90;;;6.60;99.90;;;;;;5080543;28;20036;-81
2023/12/20 06:06:58;;;;;;;892.83;810.78;;;6.60;99.90;;;;;;5062942;28;20064;-80
2023/12/20 06:09:23;;;;;;;857.17;781.40;;;6.60;99.90;;;;;;5080111;28;20102;-81
2023/12/20 06:11:49;;;;;;;845.58;771.45;;;6.60;99.90;;;;;;5064021;28;20033;-81
2023/12/20 06:14:15;;;;;;;894.22;815.28;;;7.80;99.90;;;;;;5065020;28;20036;-81
2023/12/20 06:16:40;;;;;;;870.00;795.15;;;6.60;99.90;;;;;;5065606;28;20047;-81
2023/12/20 06:19:06;;;;;;;877.58;799.45;;;6.60;99.90;;;;;;5081599;28;20097;-81
2023/12/20 06:21:32;;;;;;;880.33;805.85;;;6.60;99.90;;;;;;5063011;28;20028;-81
2023/12/20 06:23:59;;;;;;;915.90;837.05;;;6.60;99.90;;;;;;5063973;28;20036;-81
2023/12/20 06:26:25;;;;;;;938.78;850.50;;;6.60;99.90;;;;;;5067823;28;20132;-81
2023/12/20 06:28:50;;;;;;;891.00;816.40;;;6.60;99.90;;;;;;5069079;28;20093;-81
2023/12/20 06:31:16;;;;;;;873.38;793.22;;;6.60;99.90;;;;;;5067286;28;20090;-81
2023/12/20 06:33:43;;;;;;;881.70;800.40;;;6.60;99.90;;;;;;5066481;28;20051;-81
2023/12/20 06:36:13;;;;;;;872.83;794.47;;;6.70;99.90;;;;;;5084429;28;20037;-81
2023/12/20 06:38:39;;;;;;;866.10;790.97;;;6.70;99.90;;;;;;5067337;28;20131;-81
2023/12/20 06:41:05;;;;;;;864.95;790.47;;;6.70;99.90;;;;;;5067975;28;20104;-81
2023/12/20 06:43:32;;;;;;;863.38;791.33;;;7.40;99.90;;;;;;5067619;28;20048;-81
2023/12/20 06:45:58;;;;;;;905.42;818.67;;;7.20;99.90;;;;;;5067420;28;20511;-81
2023/12/20 06:48:23;;;;;;;842.42;771.33;;;7.40;99.90;;;;;;5083829;28;20032;-81
2023/12/20 06:50:49;;;;;;;935.45;842.38;;;7.00;99.90;;;;;;5067021;28;20516;-81
2023/12/20 06:53:15;;;;;;;925.10;838.15;;;6.80;99.90;;;;;;5067366;28;20043;-81
2023/12/20 06:55:41;;;;;;;898.55;819.10;;;7.60;99.90;;;;;;5066705;28;20074;-81
2023/12/20 06:58:06;;;;;;;891.50;813.17;;;6.90;99.90;;;;;;5067545;28;20036;-81
2023/12/20 07:00:33;;;;;;;911.72;828.38;;;7.20;99.90;;;;;;5066633;28;20079;-81
2023/12/20 07:02:59;;;;;;;901.50;816.65;;;7.20;99.90;;;;;;5083379;28;20040;-81
2023/12/20 07:05:24;;;;;;;863.80;786.83;;;6.90;99.90;;;;;;5066492;28;20037;-81
2023/12/20 07:07:50;;;;;;;927.67;837.97;;;6.90;99.90;;;;;;5083417;28;20071;-81
2023/12/20 07:10:16;;;;;;;869.80;791.55;;;6.90;99.90;;;;;;5067046;28;20064;-81
2023/12/20 07:12:41;;;;;;;875.47;795.97;;;6.90;99.90;;;;;;5066585;28;20572;-81
2023/12/20 07:15:07;;;;;;;882.47;803.63;;;6.90;99.90;;;;;;5066882;28;20066;-81
2023/12/20 07:17:34;;;;;;;909.67;825.03;;;6.90;99.90;;;;;;5067599;28;20041;-82
2023/12/20 07:20:03;;;;;;;854.40;781.30;;;7.00;99.90;;;;;;5067289;28;20043;-81
2023/12/20 07:22:33;;;;;;;905.92;821.58;;;7.60;99.90;;;;;;5067000;28;20068;-81
2023/12/20 07:25:00;;;;;;;885.85;807.97;;;7.00;99.90;;;;;;5088080;28;20048;-81
2023/12/20 07:27:28;;;;;;;894.03;814.58;;;7.00;99.90;;;;;;5075733;28;20037;-80
2023/12/20 07:29:54;;;;;;;1008.08;902.83;;;7.00;99.90;;;;;;5072663;28;20071;-81
2023/12/20 07:32:20;;;;;;;884.13;807.95;;;7.00;99.90;;;;;;5069901;28;20139;-81
2023/12/20 07:34:45;;;;;;;914.33;830.08;;;7.30;99.90;;;;;;5067375;28;20058;-81
2023/12/20 07:37:14;;;;;;;872.55;797.40;;;7.00;99.90;;;;;;5059639;28;20040;-81
2023/12/20 07:39:42;;;;;;;924.65;840.42;;;7.00;99.90;;;;;;5066656;28;20108;-81
2023/12/20 07:42:08;;;;;;;879.88;798.88;;;7.10;99.90;;;;;;5066678;28;20075;-81
2023/12/20 07:44:35;;;;;;;882.33;804.90;;;8.10;99.90;;;;;;5082998;28;20040;-81
2023/12/20 07:47:01;;;;;;;893.50;814.17;;;7.30;99.90;;;;;;5066226;28;20037;-81
2023/12/20 07:49:27;;;;;;;929.22;843.90;;;7.10;99.90;;;;;;5050003;28;20036;-81
2023/12/20 07:51:53;;;;;;;883.65;805.38;;;7.10;99.90;;;;;;5083332;28;20119;-81
2023/12/20 07:54:19;;;;;;;858.13;787.55;;;8.00;99.90;;;;;;5066546;28;20024;-81
2023/12/20 07:56:46;;;;;;;871.15;796.00;;;7.20;99.90;;;;;;5065774;28;20036;-81
2023/12/20 07:59:12;;;;;;;878.22;800.08;;;7.10;99.90;;;;;;5066571;28;20056;-81
2023/12/20 08:01:38;;;;;;;877.72;802.13;;;7.10;99.90;;;;;;5082702;28;20036;-81
2023/12/20 08:04:03;;;;;;;863.92;788.72;;;7.20;99.90;;;;;;5065801;28;20033;-81
2023/12/20 08:06:29;;;;;;;894.10;812.00;;;7.30;99.90;;;;;;5066331;28;20051;-81
2023/12/20 08:08:55;;;;;;;894.40;810.28;;;7.30;99.90;;;;;;5066381;28;20067;-81
2023/12/20 08:11:20;;;;;;;870.08;797.63;;;8.30;99.90;;;;;;5083711;28;20040;-81
2023/12/20 08:13:46;;;;;;;870.28;792.95;;;7.60;99.90;;;;;;5066009;28;20039;-81
2023/12/20 08:16:13;;;;;;;851.05;778.85;;;7.20;99.90;;;;;;5065780;28;20055;-81
2023/12/20 08:18:39;;;;;;;926.42;842.90;;;7.20;99.90;;;;;;5066269;28;20504;-81
2023/12/20 08:21:07;;;;;;;867.17;788.90;;;7.20;99.90;;;;;;5084200;28;20041;-82
2023/12/20 08:23:34;;;;;;;912.83;829.20;;;7.20;99.90;;;;;;5066619;28;20068;-81
2023/12/20 08:26:04;;;;;;;846.92;774.60;;;7.60;99.90;;;;;;5066076;28;20056;-81
2023/12/20 08:28:31;;;;;;;899.30;818.50;;;7.20;99.90;;;;;;5066169;28;20037;-81
2023/12/20 08:30:56;;;;;;;878.33;802.40;;;7.20;99.90;;;;;;5065397;28;20032;-81
2023/12/20 08:33:25;;;;;;;895.25;816.60;;;7.50;99.90;;;;;;5065451;28;20039;-81
2023/12/20 08:35:51;;;;;;;847.65;775.22;;;7.10;99.90;;;;;;5066384;28;20044;-81
2023/12/20 08:38:17;;;;;;;853.35;781.83;;;7.30;99.90;;;;;;5065843;28;20042;-81
2023/12/20 08:40:43;;;;;;;889.47;813.75;;;7.30;99.90;;;;;;5066408;28;20043;-81
2023/12/20 08:43:09;;;;;;;886.88;810.25;;;7.20;99.90;;;;;;5066449;28;20100;-81
2023/12/20 08:45:35;;;;;;;857.75;785.72;;;7.20;99.90;;;;;;5066037;28;20095;-81
2023/12/20 08:48:00;;;;;;;874.38;801.40;;;7.20;99.90;;;;;;5082796;28;20062;-81
2023/12/20 08:50:26;;;;;;;897.33;816.70;;;8.50;99.90;;;;;;5082941;28;20052;-81
2023/12/20 08:52:52;;;;;;;800.83;735.80;;;7.20;99.90;;;;;;5066111;28;20041;-81
2023/12/20 08:55:19;;;;;;;877.05;796.78;;;8.30;99.90;;;;;;5065325;28;20036;-81
2023/12/20 08:57:47;;;;;;;861.13;789.10;;;7.30;99.90;;;;;;5066292;28;20045;-81
2023/12/20 09:00:13;;;;;;;907.08;826.70;;;8.30;99.90;;;;;;5082251;28;20545;-81
2023/12/20 09:02:39;;;;;;;871.50;796.70;;;7.40;99.90;;;;;;5065944;28;20036;-81
2023/12/20 09:05:05;;;;;;;900.78;821.08;;;8.40;99.90;;;;;;5065221;28;20518;-81
2023/12/20 09:07:31;;;;;;;865.17;788.35;;;7.40;99.90;;;;;;5073441;28;20090;-80
2023/12/20 09:09:58;;;;;;;890.80;810.17;;;7.40;99.90;;;;;;5065987;28;20064;-81
2023/12/20 09:12:24;;;;;;;896.22;818.20;;;8.00;99.90;;;;;;5066144;28;20092;-81
2023/12/20 09:14:51;;;;;;;1119.85;896.15;;;7.50;99.90;;;;;;5066417;28;20036;-80
2023/12/20 09:17:18;;;;;;;964.67;870.35;;;8.00;99.90;;;;;;5065243;28;20052;-80
2023/12/20 09:19:44;;;;;;;890.22;816.75;;;6.60;99.90;;;;;;5082818;28;20036;-81
2023/12/20 09:22:10;;;;;;;994.97;878.10;;;7.60;99.90;;;;;;5066588;28;20416;-80
2023/12/20 09:24:36;;;;;;;875.40;798.38;;;6.30;99.90;;;;;;5075260;28;20044;-81
2023/12/20 09:27:02;;;;;;;881.83;797.60;;;6.00;99.90;;;;;;5082950;28;20060;-81
2023/12/20 09:29:28;;;;;;;946.90;851.33;;;6.00;99.90;;;;;;5069661;28;20056;-81
2023/12/20 09:31:54;;;;;;;915.22;828.97;;;6.60;99.90;;;;;;5069990;28;20028;-81
2023/12/20 09:34:21;;;;;;;904.53;830.38;;;6.90;99.90;;;;;;5058987;28;20037;-81
2023/12/20 09:36:47;;;;;;;989.53;888.42;;;5.90;99.90;;;;;;5069028;28;20032;-80
2023/12/20 09:39:21;;;;;;;889.35;811.20;;;6.30;99.90;;;;;;5068968;28;20068;-81
2023/12/20 09:41:59;;;;;;;885.72;816.20;;;6.80;99.90;;;;;;5068984;28;20068;-81
2023/12/20 09:44:25;;;;;;;890.33;819.13;;;5.80;99.90;;;;;;5069087;28;20035;-81
2023/12/20 09:46:52;;;;;;;1001.05;898.40;;;5.80;99.90;;;;;;5067493;28;20060;-80
2023/12/20 09:49:20;;;;;;;897.45;822.65;;;6.80;99.90;;;;;;5067849;28;20477;-81
2023/12/20 09:51:47;;;;;;;903.45;829.42;;;5.90;99.90;;;;;;5067358;28;20532;-81
2023/12/20 09:54:17;;;;;;;925.85;842.08;;;5.80;99.90;;;;;;5051608;28;20036;-81
2023/12/20 09:56:43;;;;;;;913.25;837.38;;;5.80;99.90;;;;;;5067359;28;20090;-81
2023/12/20 09:59:09;;;;;;;945.40;863.53;;;7.00;99.90;;;;;;5068312;28;20045;-80
2023/12/20 10:01:36;;;;;;;913.30;834.97;;;5.90;99.90;;;;;;5067535;28;20036;-81
2023/12/20 10:04:12;;;;;;;941.95;860.25;;;6.30;99.90;;;;;;5068248;28;20079;-81
2023/12/20 10:06:42;;;;;;;902.55;822.63;;;6.00;99.90;;;;;;5067947;28;20049;-81
2023/12/20 10:09:08;;;;;;;873.83;801.97;;;5.90;99.90;;;;;;5085213;28;20045;-81
2023/12/20 10:11:37;;;;;;;898.80;819.45;;;6.40;99.90;;;;;;5084664;28;20119;-81
2023/12/20 10:14:03;;;;;;;889.85;815.85;;;7.20;99.90;;;;;;5069416;28;20037;-80
2023/12/20 10:16:30;;;;;;;915.22;836.17;;;6.30;99.90;;;;;;5068603;28;20059;-81
2023/12/20 10:18:56;;;;;;;874.58;803.42;;;6.40;99.90;;;;;;5068199;28;20535;-81
2023/12/20 10:21:27;;;;;;;934.55;846.03;;;6.00;99.90;;;;;;5084322;28;20036;-81
2023/12/20 10:23:54;;;;;;;912.25;835.75;;;6.00;99.90;;;;;;5065600;28;20408;-81
2023/12/20 10:26:23;;;;;;;940.00;851.72;;;6.00;99.90;;;;;;5058990;28;20135;-81
2023/12/20 10:28:59;;;;;;;907.97;829.63;;;7.00;99.90;;;;;;5060233;28;20043;-81
2023/12/20 10:31:30;;;;;;;896.38;823.38;;;5.90;99.90;;;;;;5052282;28;20037;-81
2023/12/20 10:33:57;;;;;;;849.15;783.50;;;6.10;99.90;;;;;;5060112;28;20048;-82
2023/12/20 10:36:26;;;;;;;947.80;861.80;;;5.90;99.90;;;;;;5076487;28;20047;-81
2023/12/20 10:38:53;;;;;;;900.63;826.40;;;6.90;99.90;;;;;;5057279;28;20042;-81
2023/12/20 10:41:28;;;;;;;952.25;866.67;;;5.80;99.90;;;;;;5059232;28;20047;-82
2023/12/20 10:44:07;;;;;;;896.78;822.40;;;5.80;99.90;;;;;;5059492;28;20039;-82
2023/12/20 10:46:36;;;;;;;917.65;841.15;;;5.80;99.90;;;;;;5074289;28;20101;-82
2023/12/20 10:49:06;;;;;;;920.78;841.08;;;5.60;99.90;;;;;;5060206;28;20036;-82
2023/12/20 10:51:34;;;;;;;871.45;801.63;;;5.80;99.90;;;;;;5078582;28;20048;-82
2023/12/20 10:54:03;;;;;;;890.80;816.92;;;5.80;99.90;;;;;;5060729;28;20039;-82
2023/12/20 10:56:33;;;;;;;927.95;843.35;;;5.30;99.90;;;;;;5072424;28;20032;-82
2023/12/20 10:59:02;;;;;;;915.75;837.22;;;5.90;99.90;;;;;;5059142;28;20462;-82
2023/12/20 11:01:29;;;;;;;902.00;828.63;;;6.60;99.90;;;;;;5067262;28;20508;-82
2023/12/20 11:03:55;;;;;;;947.33;858.97;;;5.80;99.90;;;;;;5059040;28;20033;-82
2023/12/20 11:06:33;;;;;;;911.85;834.60;;;5.80;99.90;;;;;;5076054;28;20101;-82
2023/12/20 11:09:09;;;;;;;929.25;847.25;;;5.80;99.90;;;;;;5059711;28;20040;-82
2023/12/20 11:12:07;;;;;;;938.50;857.40;;;5.90;99.90;;;;;;5051429;28;20036;-81
2023/12/20 11:14:43;;;;;;;856.78;788.67;;;6.00;99.90;;;;;;5046231;28;20508;-82
2023/12/20 11:17:09;;;;;;;897.72;824.92;;;6.10;99.90;;;;;;5076389;28;20039;-82
2023/12/20 11:20:05;;;;;;;940.33;854.58;;;6.20;99.90;;;;;;5075573;28;20037;-82
2023/12/20 11:22:32;;;;;;;910.35;831.42;;;6.30;99.90;;;;;;5060561;28;20029;-82
2023/12/20 11:25:08;;;;;;;930.33;850.53;;;6.90;99.90;;;;;;5060894;28;20119;-82
2023/12/20 11:27:33;;;;;;;946.95;859.47;;;6.40;99.90;;;;;;5060296;28;20033;-82
2023/12/20 11:30:00;;;;;;;931.50;850.47;;;6.40;99.90;;;;;;5079152;28;20094;-81
2023/12/20 11:32:29;;;;;;;898.45;821.45;;;6.50;99.90;;;;;;5073056;28;20111;-82
2023/12/20 11:34:58;;;;;;;883.33;807.28;;;6.50;99.90;;;;;;5063118;28;20048;-82
2023/12/20 11:37:31;;;;;;;877.17;801.72;;;6.60;99.90;;;;;;5072134;28;20033;-82
2023/12/20 11:40:09;;;;;;;908.67;831.13;;;6.60;99.90;;;;;;5074336;28;20052;-82
2023/12/20 11:42:42;;;;;;;923.80;841.15;;;6.70;99.90;;;;;;5057885;28;20558;-82
2023/12/20 11:45:16;;;;;;;898.03;816.67;;;6.70;99.90;;;;;;5074049;28;20043;-82
2023/12/20 11:47:46;;;;;;;947.03;858.97;;;6.70;99.90;;;;;;5049115;28;20457;-82
2023/12/20 11:50:12;;;;;;;927.15;843.53;;;6.70;99.90;;;;;;5052802;28;20044;-82
2023/12/20 11:52:38;;;;;;;937.90;852.78;;;6.70;99.90;;;;;;5072765;28;20040;-82
2023/12/20 11:55:04;;;;;;;922.33;837.72;;;6.80;99.90;;;;;;5056960;28;20493;-82
2023/12/20 11:57:30;;;;;;;861.55;785.10;;;6.80;99.90;;;;;;5073473;28;20043;-82
2023/12/20 11:59:56;;;;;;;945.20;857.55;;;7.00;99.90;;;;;;5057743;28;20408;-83
2023/12/20 12:02:23;;;;;;;915.63;827.75;;;6.70;99.90;;;;;;5064132;28;20044;-82
2023/12/20 12:04:50;;;;;;;906.42;822.38;;;7.60;99.90;;;;;;5083414;28;20044;-83
2023/12/20 12:07:16;;;;;;;916.03;825.83;;;7.80;99.90;;;;;;5067940;28;20044;-82
2023/12/20 12:09:43;;;;;;;993.15;889.28;;;7.20;99.90;;;;;;5067640;28;20040;-82
2023/12/20 12:12:09;;;;;;;957.33;860.80;;;7.40;99.90;;;;;;5067131;28;20047;-82
2023/12/20 12:14:36;;;;;;;908.40;821.08;;;7.20;99.90;;;;;;5067211;28;20090;-82
2023/12/20 12:17:03;;;;;;;872.58;792.20;;;7.30;99.90;;;;;;5066868;28;20041;-82